Newport, Indiana
Current Conditions -  °F | °C
As of 12:15 PM on Sunday 21 Dec 2014 (Local Time) from KPRG Reporting Station
Scattered Clouds Scattered Clouds  
Wind Chill: 28°   Ceiling: Unl
Heat Index: 35°   Visibility: 10mi
Dew Point: 32°   Wind: 10mph
Humidity: 87%   Direction: 140°SE
Pressure: 30.23"   Gusts: NA
Location:  39.88°N, 87.41°W
Report Text: KPRG 211715Z AUTO 14009KT 10SM SCT027 02/00 A3023 RMK AO2 T00181002
Loading
Personal Weather Stations






























Interactive Weather Map New forecast layout! Learn more

10-Day Weather Forecast

Advertisements
Track Severe Weather on mobile